createdAt,value
2023-03-16T00:01:42.091Z,18.93
2023-03-16T00:06:43.706Z,13.73
2023-03-16T00:11:45.336Z,20.13
2023-03-16T00:16:47.013Z,15.67
2023-03-16T00:21:50.195Z,15.53
2023-03-16T00:26:54.917Z,17.20
2023-03-16T00:31:56.595Z,17.10
2023-03-16T00:36:59.098Z,17.73
2023-03-16T00:42:00.783Z,18.20
2023-03-16T00:47:06.451Z,15.03
2023-03-16T00:52:09.329Z,19.47
2023-03-16T00:57:17.539Z,16.73
2023-03-16T01:02:23.441Z,17.27
2023-03-16T01:07:25.299Z,12.63
2023-03-16T01:12:27.856Z,14.67
2023-03-16T01:17:29.996Z,15.97
2023-03-16T01:22:33.717Z,14.60
2023-03-16T01:27:36.877Z,14.10
2023-03-16T01:32:39.953Z,12.60
2023-03-16T01:37:42.503Z,14.50
2023-03-16T01:43:04.747Z,13.37
2023-03-16T01:48:10.914Z,16.33
2023-03-16T01:53:12.937Z,12.23
2023-03-16T01:58:14.849Z,13.83
2023-03-16T02:03:19.586Z,13.67
2023-03-16T02:08:27.673Z,15.13
2023-03-16T02:13:32.663Z,10.33
2023-03-16T02:18:36.114Z,9.03
2023-03-16T02:23:38.086Z,14.43
2023-03-16T02:28:57.987Z,14.87
2023-03-16T02:34:00.379Z,17.87
2023-03-16T02:39:02.138Z,13.23
2023-03-16T02:44:17.460Z,9.83
2023-03-16T02:49:30.274Z,11.10
2023-03-16T02:54:32.532Z,12.47
2023-03-16T02:59:34.230Z,11.57
2023-03-16T03:04:36.060Z,10.07
2023-03-16T03:09:37.669Z,11.30
2023-03-16T03:14:40.140Z,9.30
2023-03-16T03:19:41.901Z,10.67
2023-03-16T03:24:43.738Z,10.80
2023-03-16T03:29:45.717Z,8.83
2023-03-16T03:34:47.491Z,9.90
2023-03-16T03:39:50.567Z,10.10
2023-03-16T03:44:53.139Z,10.10
2023-03-16T03:49:54.906Z,12.03
2023-03-16T03:54:57.511Z,13.30
2023-03-16T04:00:00.584Z,9.87
2023-03-16T04:05:19.386Z,10.80
2023-03-16T04:10:26.450Z,10.73
2023-03-16T04:15:30.253Z,11.20
2023-03-16T04:20:40.359Z,10.23
2023-03-16T04:25:42.633Z,10.23
2023-03-16T04:30:44.713Z,10.33
2023-03-16T04:35:56.126Z,10.53
2023-03-16T04:40:59.402Z,9.33
2023-03-16T04:46:06.951Z,9.87
2023-03-16T04:51:09.691Z,10.70
2023-03-16T04:56:18.350Z,11.40
2023-03-16T05:01:23.764Z,7.93
2023-03-16T05:06:29.514Z,12.70
2023-03-16T05:11:33.456Z,10.83
2023-03-16T05:16:37.685Z,11.03
2023-03-16T05:21:39.461Z,10.80
2023-03-16T05:26:43.895Z,9.07
2023-03-16T05:31:48.649Z,9.03
2023-03-16T05:36:53.595Z,8.40
2023-03-16T05:41:58.174Z,11.43
2023-03-16T05:47:11.137Z,10.37
2023-03-16T05:52:17.124Z,11.37
2023-03-16T05:57:18.907Z,12.07
2023-03-16T06:02:23.430Z,12.17
2023-03-16T06:07:27.476Z,9.87
2023-03-16T06:12:31.346Z,9.73
2023-03-16T06:17:34.585Z,11.17
2023-03-16T06:22:41.563Z,10.30
2023-03-16T06:27:43.547Z,11.20
2023-03-16T06:32:52.207Z,8.80
2023-03-16T06:37:53.918Z,9.57
2023-03-16T06:43:14.339Z,7.97
2023-03-16T06:48:19.255Z,11.93
2023-03-16T06:53:22.530Z,11.87
2023-03-16T06:58:24.700Z,8.77
2023-03-16T07:03:26.478Z,8.23
2023-03-16T07:08:34.120Z,9.80
2023-03-16T07:13:36.930Z,9.17
2023-03-16T07:24:00.306Z,11.97
2023-03-16T07:29:06.496Z,8.27
2023-03-16T07:34:09.049Z,9.83
2023-03-16T07:39:20.267Z,9.40
2023-03-16T07:44:23.051Z,10.93
2023-03-16T07:49:24.779Z,9.13
2023-03-16T07:54:28.979Z,9.20
2023-03-16T07:59:31.423Z,7.63
2023-03-16T08:04:33.894Z,3.87
2023-03-16T08:09:37.327Z,3.77
2023-03-16T08:14:41.936Z,6.57
2023-03-16T08:19:51.750Z,4.18
2023-03-16T08:24:55.577Z,6.95
2023-03-16T08:29:57.654Z,5.90
2023-03-16T08:35:01.048Z,7.78
2023-03-16T08:40:05.563Z,4.55
2023-03-16T08:45:12.381Z,7.40
2023-03-16T08:50:15.731Z,6.60
2023-03-16T08:55:17.473Z,6.10
2023-03-16T09:00:20.457Z,7.47
2023-03-16T09:05:23.314Z,8.15
2023-03-16T09:10:26.210Z,8.63
2023-03-16T09:15:29.116Z,9.32
2023-03-16T09:20:33.319Z,8.90
2023-03-16T09:25:35.123Z,9.45
2023-03-16T09:30:37.451Z,11.88
2023-03-16T09:35:39.566Z,11.77
2023-03-16T09:40:41.550Z,12.70
2023-03-16T09:46:05.480Z,11.18
2023-03-16T09:51:23.519Z,12.63
2023-03-16T09:56:56.292Z,14.07
2023-03-16T10:02:56.526Z,13.13
2023-03-16T10:08:25.661Z,13.82
2023-03-16T10:13:37.008Z,14.18
2023-03-16T10:18:50.872Z,13.80
2023-03-16T10:23:58.815Z,13.68
2023-03-16T10:29:01.136Z,14.23
2023-03-16T10:34:06.339Z,15.07
2023-03-16T10:39:17.538Z,14.70
2023-03-16T10:44:24.653Z,14.07
2023-03-16T10:49:42.283Z,14.27
2023-03-16T10:54:51.379Z,15.57
2023-03-16T10:59:56.733Z,15.57
2023-03-16T11:04:58.564Z,15.55
2023-03-16T11:10:01.862Z,15.23
2023-03-16T11:15:23.614Z,15.45
2023-03-16T11:20:28.752Z,16.23
2023-03-16T11:26:02.939Z,17.45
2023-03-16T11:31:40.410Z,17.15
2023-03-16T11:36:53.485Z,16.08
2023-03-16T11:42:19.509Z,17.08
2023-03-16T11:47:45.807Z,16.50
2023-03-16T11:53:09.355Z,16.27
2023-03-16T11:58:35.520Z,16.33
2023-03-16T12:04:01.821Z,16.70
2023-03-16T12:09:13.499Z,17.27
2023-03-16T12:14:33.870Z,16.73
2023-03-16T12:19:51.300Z,16.10
2023-03-16T12:24:53.299Z,15.65
2023-03-16T12:30:13.002Z,16.80
2023-03-16T12:35:23.231Z,16.45
2023-03-16T12:40:29.091Z,16.05
2023-03-16T12:45:38.728Z,16.58
2023-03-16T12:50:52.278Z,16.50
2023-03-16T12:55:56.585Z,16.05
2023-03-16T13:01:00.053Z,16.58
2023-03-16T13:06:03.547Z,17.08
2023-03-16T13:11:14.291Z,16.35
2023-03-16T13:16:31.678Z,16.23
2023-03-16T13:21:41.684Z,16.83
2023-03-16T13:26:47.577Z,16.67
2023-03-16T13:31:50.573Z,16.88
2023-03-16T13:36:57.826Z,17.17
2023-03-16T13:42:18.638Z,16.65
2023-03-16T13:47:21.271Z,16.58
2023-03-16T13:52:35.635Z,17.02
2023-03-16T13:57:40.526Z,17.48
2023-03-16T14:02:44.399Z,17.00
2023-03-16T14:07:48.663Z,16.60
2023-03-16T14:12:55.687Z,16.52
2023-03-16T14:18:21.495Z,17.65
2023-03-16T14:23:36.858Z,17.40
2023-03-16T14:28:38.781Z,17.40
2023-03-16T14:33:46.032Z,17.75
2023-03-16T14:38:48.895Z,18.20
2023-03-16T14:43:54.546Z,18.67
2023-03-16T14:49:08.896Z,18.67
2023-03-16T14:54:17.187Z,19.67
2023-03-16T14:59:19.515Z,18.85
2023-03-16T15:04:28.441Z,19.42
2023-03-16T15:09:43.352Z,19.73
2023-03-16T15:15:04.163Z,19.42
2023-03-16T15:20:07.207Z,19.88
2023-03-16T15:25:36.519Z,20.88
2023-03-16T15:30:39.072Z,20.42
2023-03-16T15:35:41.973Z,20.58
2023-03-16T15:40:45.636Z,19.70
2023-03-16T15:45:47.803Z,20.08
2023-03-16T15:51:02.260Z,18.48
2023-03-16T15:56:13.656Z,19.27
2023-03-16T16:01:46.125Z,20.08
2023-03-16T16:06:48.536Z,19.30
2023-03-16T16:11:51.417Z,19.48
2023-03-16T16:16:54.309Z,19.00
2023-03-16T16:21:56.203Z,19.38
2023-03-16T16:26:57.895Z,19.10
2023-03-16T16:32:00.789Z,18.95
2023-03-16T16:37:02.398Z,18.95
2023-03-16T16:42:04.399Z,18.55
2023-03-16T16:47:18.942Z,18.73
2023-03-16T16:52:20.973Z,17.92
2023-03-16T16:57:22.663Z,18.90
2023-03-16T17:02:43.354Z,21.40
2023-03-16T17:07:44.962Z,20.98
2023-03-16T17:12:47.239Z,19.13
2023-03-16T17:17:52.475Z,18.67
2023-03-16T17:22:55.698Z,17.98
2023-03-16T17:27:58.023Z,18.65
2023-03-16T17:33:11.039Z,19.90
2023-03-16T17:38:17.411Z,18.77
2023-03-16T17:43:22.042Z,18.58
2023-03-16T17:48:24.225Z,17.83
2023-03-16T17:53:26.233Z,18.10
2023-03-16T17:58:31.556Z,17.63
2023-03-16T18:03:33.364Z,18.25
2023-03-16T18:08:36.007Z,18.77
2023-03-16T18:13:39.704Z,17.23
2023-03-16T18:18:42.805Z,16.70
2023-03-16T18:23:44.450Z,17.95
2023-03-16T18:28:46.864Z,17.77
2023-03-16T18:33:51.329Z,17.05
2023-03-16T18:38:53.950Z,18.50
2023-03-16T18:43:58.030Z,16.33
2023-03-16T18:49:22.840Z,16.73
2023-03-16T18:54:27.732Z,16.75
2023-03-16T18:59:31.331Z,15.82
2023-03-16T19:04:33.542Z,15.20
2023-03-16T19:09:36.210Z,15.07
2023-03-16T19:14:38.005Z,14.35
2023-03-16T19:19:39.929Z,14.82
2023-03-16T19:24:53.936Z,13.23
2023-03-16T19:29:55.974Z,15.52
2023-03-16T19:34:58.004Z,15.02
2023-03-16T19:40:00.465Z,14.50
2023-03-16T19:45:03.396Z,14.02
2023-03-16T19:50:22.226Z,12.90
2023-03-16T19:55:30.385Z,14.18
2023-03-16T20:00:33.229Z,13.13
2023-03-16T20:05:38.595Z,12.73
2023-03-16T20:10:40.838Z,13.15
2023-03-16T20:15:42.885Z,13.20
2023-03-16T20:20:45.352Z,13.75
2023-03-16T20:25:48.408Z,13.50
2023-03-16T20:30:51.768Z,13.27
2023-03-16T20:35:53.845Z,13.13
2023-03-16T20:40:56.056Z,14.93
2023-03-16T20:46:00.361Z,15.20
2023-03-16T20:51:02.213Z,14.60
2023-03-16T20:56:04.372Z,15.30
2023-03-16T21:01:09.680Z,14.90
2023-03-16T21:06:31.807Z,14.75
2023-03-16T21:11:44.007Z,16.08
2023-03-16T21:16:45.909Z,15.23
2023-03-16T21:21:47.810Z,14.35
2023-03-16T21:26:49.815Z,14.50
2023-03-16T21:31:51.944Z,15.20
2023-03-16T21:36:53.870Z,14.35
2023-03-16T21:41:55.774Z,14.40
2023-03-16T21:46:57.818Z,14.60
2023-03-16T21:52:01.203Z,14.40
2023-03-16T21:57:11.860Z,15.40
2023-03-16T22:02:26.025Z,14.38
2023-03-16T22:07:27.924Z,14.23
2023-03-16T22:12:29.700Z,14.35
2023-03-16T22:17:38.548Z,13.68
2023-03-16T22:22:40.708Z,13.65
2023-03-16T22:27:45.227Z,12.32
2023-03-16T22:32:50.237Z,12.98
2023-03-16T22:37:53.879Z,12.40
2023-03-16T22:42:59.620Z,11.60
2023-03-16T22:48:05.189Z,12.18
2023-03-16T22:53:08.644Z,12.10
2023-03-16T22:58:17.889Z,11.85
2023-03-16T23:03:22.801Z,10.95
2023-03-16T23:08:26.579Z,11.43
2023-03-16T23:13:29.052Z,11.25
2023-03-16T23:18:30.941Z,10.93
2023-03-16T23:23:33.079Z,11.32
2023-03-16T23:28:34.932Z,11.02
2023-03-16T23:33:37.007Z,11.38
2023-03-16T23:38:38.804Z,11.20
2023-03-16T23:43:42.760Z,11.35
2023-03-16T23:48:46.351Z,11.23
2023-03-16T23:53:49.295Z,11.02
2023-03-16T23:58:51.226Z,10.63
